Time;durP1;ratioP1;P1;durP2;ratioP2;P2;SDS_P1;SDS_P2;PMS_P1;PMS_P2;Temp;Humidity;BMP_temperature;BMP_pressure;BME280_temperature;BME280_humidity;BME280_pressure;Samples;Min_cycle;Max_cycle;Signal;HPM_P1;HPM_P2
2023/07/14 00:00:08;;;;;;;7.88;2.17;;;18.90;99.90;;;;;;5034173;28;20029;-47
2023/07/14 00:02:35;;;;;;;4.85;2.00;;;18.90;99.90;;;;;;5033558;28;20401;-47
2023/07/14 00:05:05;;;;;;;8.38;1.75;;;19.00;99.90;;;;;;5033753;28;20474;-53
2023/07/14 00:07:30;;;;;;;6.25;2.28;;;18.90;99.90;;;;;;5032467;28;20033;-49
2023/07/14 00:09:56;;;;;;;5.13;2.15;;;19.00;99.90;;;;;;5033009;28;20033;-48
2023/07/14 00:12:21;;;;;;;8.43;1.85;;;19.00;99.90;;;;;;5032967;28;20044;-50
2023/07/14 00:14:47;;;;;;;6.00;3.38;;;18.90;99.90;;;;;;5032831;28;20022;-47
2023/07/14 00:17:14;;;;;;;4.38;1.90;;;18.80;99.90;;;;;;5032443;28;20049;-48
2023/07/14 00:19:40;;;;;;;3.85;1.52;;;18.80;99.90;;;;;;5032763;28;20434;-49
2023/07/14 00:22:12;;;;;;;3.75;1.20;;;18.80;99.90;;;;;;5036621;23;20050;-52
2023/07/14 00:24:38;;;;;;;6.47;1.95;;;18.80;99.90;;;;;;5012965;28;20057;-50
2023/07/14 00:27:14;;;;;;;7.65;1.77;;;18.80;99.90;;;;;;5012613;28;20061;-50
2023/07/14 00:29:39;;;;;;;4.82;2.08;;;18.90;99.90;;;;;;5028162;28;20091;-52
2023/07/14 00:32:12;;;;;;;2.97;1.42;;;18.80;99.90;;;;;;5028018;28;20116;-53
2023/07/14 00:34:39;;;;;;;12.27;2.25;;;18.80;99.90;;;;;;5012915;28;20045;-52
2023/07/14 00:37:04;;;;;;;4.25;1.75;;;18.80;99.90;;;;;;5012150;28;20022;-51
2023/07/14 00:39:30;;;;;;;5.45;1.90;;;18.90;99.90;;;;;;5011678;28;20080;-53
2023/07/14 00:41:56;;;;;;;10.15;2.13;;;18.90;99.90;;;;;;5012999;28;20064;-50
2023/07/14 00:44:22;;;;;;;9.05;2.00;;;18.90;99.90;;;;;;5012338;28;20509;-53
2023/07/14 00:46:48;;;;;;;4.80;1.92;;;18.90;99.90;;;;;;5010960;28;20095;-52
2023/07/14 00:49:35;;;;;;;8.10;1.88;;;18.90;99.90;;;;;;5013013;28;20022;-49
2023/07/14 00:52:26;;;;;;;3.40;1.98;;;18.90;99.90;;;;;;5012534;28;20021;-51
2023/07/14 00:54:52;;;;;;;9.15;1.70;;;18.90;99.90;;;;;;5005082;28;20033;-52
2023/07/14 00:57:20;;;;;;;4.65;2.22;;;18.80;99.90;;;;;;5011992;28;20061;-51
2023/07/14 00:59:45;;;;;;;6.32;2.30;;;18.80;99.90;;;;;;5027625;28;20022;-56
2023/07/14 01:02:11;;;;;;;6.78;2.17;;;18.80;99.90;;;;;;5012493;28;20436;-52
2023/07/14 01:04:39;;;;;;;3.20;1.73;;;18.80;99.90;;;;;;5027626;28;20026;-56
2023/07/14 01:07:05;;;;;;;10.05;2.28;;;18.70;99.90;;;;;;5011513;28;20033;-52
2023/07/14 01:09:32;;;;;;;6.10;1.48;;;18.70;99.90;;;;;;5012313;28;20029;-54
2023/07/14 01:11:59;;;;;;;4.38;2.47;;;18.70;99.90;;;;;;5012172;28;20034;-56
2023/07/14 01:14:39;;;;;;;3.38;1.88;;;18.70;99.90;;;;;;5012082;28;20018;-53
2023/07/14 01:17:06;;;;;;;5.60;2.13;;;18.70;99.90;;;;;;5011586;28;20422;-56
2023/07/14 01:19:53;;;;;;;3.97;1.83;;;18.60;99.90;;;;;;5012103;28;20026;-51
2023/07/14 01:22:18;;;;;;;2.22;2.03;;;18.60;99.90;;;;;;5012135;28;20033;-54
2023/07/14 01:24:54;;;;;;;6.70;2.00;;;18.60;99.90;;;;;;5011914;28;20025;-57
2023/07/14 01:27:20;;;;;;;7.13;1.63;;;18.60;99.90;;;;;;5011410;28;20036;-53
2023/07/14 01:29:46;;;;;;;5.28;1.75;;;18.60;99.90;;;;;;5012051;28;20097;-55
2023/07/14 01:32:21;;;;;;;5.53;1.80;;;18.50;99.90;;;;;;5012035;28;20485;-52
2023/07/14 01:34:46;;;;;;;;;;;18.50;99.90;;;;;;5012520;28;20179;-54
2023/07/14 01:37:16;;;;;;;7.18;2.20;;;18.50;99.90;;;;;;5011380;28;19940;-54
2023/07/14 01:39:42;;;;;;;7.43;2.63;;;18.60;99.90;;;;;;5026016;28;20494;-52
2023/07/14 01:42:08;;;;;;;8.50;2.28;;;18.60;99.90;;;;;;5011533;28;20037;-52
2023/07/14 01:44:35;;;;;;;8.18;2.05;;;18.60;99.90;;;;;;5026862;28;20025;-51
2023/07/14 01:47:02;;;;;;;5.43;2.47;;;18.60;99.90;;;;;;5011088;28;20030;-53
2023/07/14 01:49:32;;;;;;;10.25;1.92;;;18.60;99.90;;;;;;5011707;28;20104;-54
2023/07/14 01:52:01;;;;;;;7.43;2.50;;;18.60;99.90;;;;;;5011649;28;20025;-54
2023/07/14 01:54:38;;;;;;;3.65;2.15;;;18.50;99.90;;;;;;5011499;28;20022;-50
2023/07/14 01:57:11;;;;;;;3.90;2.08;;;18.60;99.90;;;;;;5026253;28;20022;-50
2023/07/14 01:59:40;;;;;;;9.82;2.10;;;18.60;99.90;;;;;;5011621;28;20022;-52
2023/07/14 02:02:12;;;;;;;5.63;2.35;;;18.60;99.90;;;;;;5011613;28;20038;-54
2023/07/14 02:04:39;;;;;;;8.63;2.25;;;18.70;99.90;;;;;;5026578;28;20030;-51
2023/07/14 02:07:05;;;;;;;4.55;1.88;;;18.70;99.90;;;;;;5010750;28;20030;-53
2023/07/14 02:09:32;;;;;;;5.28;2.00;;;18.70;99.90;;;;;;5011545;28;20056;-52
2023/07/14 02:12:03;;;;;;;4.75;1.90;;;18.70;99.90;;;;;;5011739;28;20050;-55
2023/07/14 02:14:43;;;;;;;4.90;2.00;;;18.80;99.90;;;;;;5011581;28;20025;-55
2023/07/14 02:17:24;;;;;;;5.00;2.03;;;18.80;99.90;;;;;;5010961;28;20018;-53
2023/07/14 02:19:51;;;;;;;2.00;1.80;;;18.80;99.90;;;;;;5011456;28;20026;-53
2023/07/14 02:22:17;;;;;;;2.80;1.70;;;18.80;99.90;;;;;;5011316;28;20052;-53
2023/07/14 02:24:44;;;;;;;2.25;1.75;;;18.80;99.90;;;;;;5011258;28;20540;-53
2023/07/14 02:27:11;;;;;;;5.07;2.00;;;18.70;99.90;;;;;;5010607;28;20037;-55
2023/07/14 02:29:36;;;;;;;4.03;2.45;;;18.70;99.90;;;;;;5009991;28;20034;-50
2023/07/14 02:32:13;;;;;;;7.18;2.10;;;18.80;99.90;;;;;;5011018;28;20379;-54
2023/07/14 02:34:51;;;;;;;6.28;1.92;;;18.70;99.90;;;;;;5011201;28;20060;-51
2023/07/14 02:38:05;;;;;;;5.95;1.95;;;18.70;99.90;;;;;;5010606;28;20037;-54
2023/07/14 02:40:34;;;;;;;9.30;2.17;;;18.50;99.90;;;;;;4993414;28;20044;-52
2023/07/14 02:43:04;;;;;;;5.97;1.63;;;18.50;99.90;;;;;;5011234;28;20104;-52
2023/07/14 02:45:31;;;;;;;5.32;2.35;;;18.50;99.90;;;;;;5011161;28;20451;-50
2023/07/14 02:47:59;;;;;;;4.47;2.40;;;18.40;99.90;;;;;;5010528;28;20042;-52
2023/07/14 02:50:24;;;;;;;4.43;2.35;;;18.50;99.90;;;;;;5026224;28;20496;-50
2023/07/14 02:52:50;;;;;;;3.55;2.30;;;18.50;99.90;;;;;;5012507;28;20062;-54
2023/07/14 02:55:15;;;;;;;2.65;2.40;;;18.50;99.90;;;;;;5014702;28;20072;-51
2023/07/14 02:57:41;;;;;;;7.10;2.40;;;18.40;99.90;;;;;;5013981;28;20084;-55
2023/07/14 03:00:07;;;;;;;4.38;2.20;;;18.40;99.90;;;;;;5014670;28;20041;-50
2023/07/14 03:02:33;;;;;;;4.07;2.35;;;18.30;99.90;;;;;;5014641;28;20340;-52
2023/07/14 03:04:59;;;;;;;5.00;1.80;;;18.20;99.90;;;;;;5029520;28;20026;-50
2023/07/14 03:07:24;;;;;;;5.28;2.00;;;18.20;99.90;;;;;;5013839;28;20033;-51
2023/07/14 03:09:50;;;;;;;8.75;2.55;;;18.20;99.90;;;;;;5014500;28;20028;-55
2023/07/14 03:12:15;;;;;;;6.40;2.58;;;18.10;99.90;;;;;;5014352;28;20029;-52
2023/07/14 03:14:41;;;;;;;2.75;1.83;;;18.10;99.90;;;;;;5014272;28;20026;-51
2023/07/14 03:17:08;;;;;;;3.80;2.20;;;18.00;99.90;;;;;;5013616;28;20030;-55
2023/07/14 03:19:33;;;;;;;5.72;2.10;;;17.90;99.90;;;;;;5014191;28;20018;-51
2023/07/14 03:21:59;;;;;;;6.70;2.38;;;17.80;99.90;;;;;;5014148;28;20129;-52
2023/07/14 03:24:25;;;;;;;8.98;2.53;;;17.70;99.90;;;;;;5029363;28;20125;-52
2023/07/14 03:26:50;;;;;;;2.60;1.73;;;17.70;99.90;;;;;;5013707;28;20456;-56
2023/07/14 03:29:16;;;;;;;6.40;2.83;;;17.60;99.90;;;;;;5014085;28;20108;-51
2023/07/14 03:31:41;;;;;;;4.63;2.45;;;17.60;99.90;;;;;;5013889;28;20072;-51
2023/07/14 03:34:07;;;;;;;7.70;2.33;;;17.60;99.90;;;;;;5013749;28;20029;-53
2023/07/14 03:36:32;;;;;;;4.53;2.13;;;17.60;99.90;;;;;;5013325;28;20478;-54
2023/07/14 03:39:23;;;;;;;4.85;2.30;;;17.60;99.90;;;;;;5012841;28;20026;-50
2023/07/14 03:41:49;;;;;;;6.15;2.05;;;17.60;99.90;;;;;;5013780;28;20498;-52
2023/07/14 03:44:14;;;;;;;6.43;2.03;;;17.60;99.90;;;;;;5013594;28;20036;-51
2023/07/14 03:46:40;;;;;;;3.65;2.10;;;17.60;99.90;;;;;;5013150;28;20026;-52
2023/07/14 03:49:05;;;;;;;4.97;2.00;;;17.70;99.90;;;;;;5013700;28;20034;-51
2023/07/14 03:51:32;;;;;;;3.05;2.15;;;17.60;99.90;;;;;;5013498;28;20041;-51
2023/07/14 03:53:58;;;;;;;4.05;2.30;;;17.70;99.90;;;;;;5013495;28;20371;-51
2023/07/14 03:56:25;;;;;;;6.20;2.13;;;17.70;99.90;;;;;;5012868;28;20037;-55
2023/07/14 03:58:51;;;;;;;3.97;2.15;;;17.80;99.90;;;;;;5013569;28;20026;-54
2023/07/14 04:01:16;;;;;;;3.10;2.17;;;17.80;99.90;;;;;;5013410;28;20429;-50
2023/07/14 04:03:42;;;;;;;5.07;2.00;;;17.90;99.90;;;;;;5012879;28;20501;-53
2023/07/14 04:06:08;;;;;;;7.03;2.55;;;17.90;99.90;;;;;;5013137;28;20037;-55
2023/07/14 04:08:42;;;;;;;4.03;1.63;;;17.90;99.90;;;;;;5013218;28;20441;-55
2023/07/14 04:11:08;;;;;;;2.08;1.90;;;18.00;99.90;;;;;;5013334;28;20049;-55
2023/07/14 04:13:34;;;;;;;4.43;2.60;;;18.00;99.90;;;;;;5012077;28;20528;-54
2023/07/14 04:15:59;;;;;;;4.55;1.77;;;18.10;99.90;;;;;;5013339;28;20026;-51
2023/07/14 04:18:25;;;;;;;5.53;2.00;;;18.10;99.90;;;;;;5012518;28;20100;-56
2023/07/14 04:20:50;;;;;;;2.42;2.10;;;18.10;99.90;;;;;;5012881;28;20033;-53
2023/07/14 04:23:17;;;;;;;6.70;2.38;;;18.20;99.90;;;;;;5013113;28;20026;-54
2023/07/14 04:25:44;;;;;;;3.53;2.10;;;18.30;99.90;;;;;;5013089;28;20053;-56
2023/07/14 04:28:09;;;;;;;7.45;3.50;;;18.30;99.90;;;;;;5012640;28;20026;-52
2023/07/14 04:30:35;;;;;;;4.65;2.35;;;18.40;99.90;;;;;;5012791;28;20026;-53
2023/07/14 04:33:00;;;;;;;5.10;2.88;;;18.40;99.90;;;;;;5012664;28;20502;-55
2023/07/14 04:35:26;;;;;;;4.13;2.30;;;18.50;99.90;;;;;;5012810;28;20014;-52
2023/07/14 04:37:52;;;;;;;5.63;2.42;;;18.40;99.90;;;;;;5011197;28;20022;-48
2023/07/14 04:40:18;;;;;;;6.43;2.35;;;18.40;99.90;;;;;;5012495;28;20036;-55
2023/07/14 04:42:43;;;;;;;2.38;2.17;;;18.40;99.90;;;;;;5012707;28;20057;-56
2023/07/14 04:45:11;;;;;;;2.83;2.05;;;18.50;99.90;;;;;;5012608;28;20061;-56
2023/07/14 04:47:36;;;;;;;5.65;2.40;;;18.50;99.90;;;;;;5011885;28;20022;-50
2023/07/14 04:50:02;;;;;;;3.42;2.25;;;18.60;99.90;;;;;;5012609;28;20397;-52
2023/07/14 04:52:28;;;;;;;3.95;2.30;;;18.60;99.90;;;;;;5011033;28;20061;-56
2023/07/14 04:54:53;;;;;;;4.15;2.40;;;18.70;99.90;;;;;;5012535;28;20022;-55
2023/07/14 04:57:19;;;;;;;6.13;2.10;;;18.80;99.90;;;;;;5011992;28;20057;-51
2023/07/14 04:59:44;;;;;;;4.53;2.20;;;18.70;99.90;;;;;;5012573;28;20029;-53
2023/07/14 05:02:10;;;;;;;8.13;3.15;;;18.80;99.90;;;;;;5012021;28;20033;-55
2023/07/14 05:04:42;;;;;;;2.88;1.80;;;18.70;99.90;;;;;;5012034;28;20476;-52
2023/07/14 05:07:07;;;;;;;5.80;2.72;;;18.80;99.90;;;;;;5011603;28;20037;-55
2023/07/14 05:09:34;;;;;;;5.18;3.53;;;18.80;99.90;;;;;;5012333;28;20026;-54
2023/07/14 05:12:00;;;;;;;7.38;2.40;;;18.80;99.90;;;;;;5012123;28;20397;-53
2023/07/14 05:14:28;;;;;;;7.18;2.63;;;18.80;99.90;;;;;;5011888;28;20034;-55
2023/07/14 05:16:54;;;;;;;5.70;2.50;;;18.70;99.90;;;;;;5009535;28;20026;-55
2023/07/14 05:19:20;;;;;;;5.22;2.83;;;18.70;99.90;;;;;;5012134;28;20056;-55
2023/07/14 05:21:45;;;;;;;3.50;2.15;;;18.70;99.90;;;;;;5011617;28;20045;-53
2023/07/14 05:24:11;;;;;;;5.20;2.60;;;18.60;99.90;;;;;;5027214;28;20030;-52
2023/07/14 05:26:37;;;;;;;4.43;2.30;;;18.50;99.90;;;;;;5011271;28;20065;-56
2023/07/14 05:29:05;;;;;;;2.80;1.90;;;18.70;99.90;;;;;;5011846;28;20033;-52
2023/07/14 05:31:32;;;;;;;2.92;2.25;;;18.80;99.90;;;;;;5011692;28;20413;-56
2023/07/14 05:33:58;;;;;;;8.80;3.13;;;19.00;99.90;;;;;;5026855;28;20022;-52
2023/07/14 05:36:23;;;;;;;10.73;2.83;;;19.40;99.90;;;;;;5011008;28;20489;-57
2023/07/14 05:38:49;;;;;;;8.65;2.42;;;20.10;99.90;;;;;;5010723;28;20022;-52
2023/07/14 05:41:14;;;;;;;6.80;2.42;;;20.40;99.10;;;;;;5011738;28;20057;-52
2023/07/14 05:43:40;;;;;;;6.07;2.28;;;20.60;99.00;;;;;;5011509;28;20030;-52
2023/07/14 05:46:05;;;;;;;7.72;2.45;;;20.60;98.60;;;;;;5026364;28;20032;-56
2023/07/14 05:48:31;;;;;;;6.40;2.72;;;20.60;98.60;;;;;;5010885;28;20038;-54
2023/07/14 05:50:58;;;;;;;3.95;2.55;;;20.70;99.00;;;;;;5011348;28;20076;-51
2023/07/14 05:53:23;;;;;;;4.35;2.22;;;21.00;98.00;;;;;;5011303;28;20398;-56
2023/07/14 05:55:49;;;;;;;5.53;2.50;;;21.00;97.60;;;;;;5026374;28;20018;-55
2023/07/14 05:58:15;;;;;;;5.25;2.20;;;20.90;97.80;;;;;;5010994;28;20072;-54
2023/07/14 06:00:42;;;;;;;8.20;2.83;;;20.80;98.20;;;;;;5011389;28;20022;-55
2023/07/14 06:03:13;;;;;;;4.65;2.65;;;20.80;98.60;;;;;;5011497;28;20397;-54
2023/07/14 06:05:40;;;;;;;8.93;2.88;;;20.80;98.80;;;;;;5026458;28;20060;-51
2023/07/14 06:08:05;;;;;;;7.82;3.00;;;20.80;98.70;;;;;;5009371;28;20141;-51
2023/07/14 06:10:33;;;;;;;7.47;2.85;;;20.80;98.60;;;;;;5011449;28;20030;-53
2023/07/14 06:12:59;;;;;;;6.35;3.03;;;20.90;98.30;;;;;;5011307;28;20022;-55
2023/07/14 06:15:24;;;;;;;4.10;2.40;;;21.20;98.00;;;;;;5026202;28;20024;-54
2023/07/14 06:17:50;;;;;;;5.40;3.40;;;21.50;97.80;;;;;;5010622;28;20052;-52
2023/07/14 06:20:15;;;;;;;5.63;2.63;;;21.70;97.40;;;;;;5011348;28;20025;-55
2023/07/14 06:22:41;;;;;;;11.80;2.58;;;21.80;97.00;;;;;;5011822;28;20037;-54
2023/07/14 06:25:07;;;;;;;2.85;2.55;;;22.20;97.00;;;;;;5011202;28;20030;-50
2023/07/14 06:27:33;;;;;;;5.68;2.95;;;22.60;96.30;;;;;;5013088;28;20227;-56
2023/07/14 06:29:59;;;;;;;4.32;2.17;;;23.10;94.90;;;;;;5013749;28;20137;-53
2023/07/14 06:32:25;;;;;;;5.68;2.22;;;23.70;94.30;;;;;;5014965;28;20069;-56
2023/07/14 06:34:51;;;;;;;5.60;2.20;;;24.60;93.40;;;;;;5015091;28;20470;-52
2023/07/14 06:37:16;;;;;;;5.38;2.70;;;25.30;91.50;;;;;;5013187;28;20026;-51
2023/07/14 06:39:42;;;;;;;5.40;2.50;;;25.80;90.30;;;;;;5014047;28;20347;-55
2023/07/14 06:42:09;;;;;;;8.05;2.33;;;26.40;88.80;;;;;;5014825;28;20100;-51
2023/07/14 06:44:35;;;;;;;4.85;2.53;;;27.20;85.80;;;;;;5014799;28;20421;-54
2023/07/14 06:47:00;;;;;;;9.60;2.50;;;27.50;84.40;;;;;;5014636;28;20022;-57
2023/07/14 06:49:26;;;;;;;3.15;2.22;;;27.90;82.10;;;;;;5014951;28;20036;-55
2023/07/14 06:51:51;;;;;;;8.43;2.08;;;28.00;81.40;;;;;;5014618;28;20084;-54
2023/07/14 06:54:17;;;;;;;5.38;2.00;;;28.00;81.90;;;;;;5029845;28;20041;-51
2023/07/14 06:56:42;;;;;;;7.00;2.50;;;28.00;81.90;;;;;;5013866;28;20041;-51
2023/07/14 06:59:08;;;;;;;4.18;2.30;;;27.70;80.60;;;;;;5029665;28;20485;-57
2023/07/14 07:01:33;;;;;;;8.02;2.67;;;27.20;81.70;;;;;;5014595;28;20060;-55
2023/07/14 07:03:59;;;;;;;3.60;2.50;;;26.90;83.70;;;;;;5014518;28;20517;-55
2023/07/14 07:06:25;;;;;;;3.03;2.30;;;26.90;83.70;;;;;;5012600;28;20030;-53
2023/07/14 07:08:50;;;;;;;3.13;2.10;;;26.80;83.30;;;;;;5014714;28;20038;-53
2023/07/14 07:11:16;;;;;;;7.00;2.40;;;27.00;82.70;;;;;;5014364;28;20202;-50
2023/07/14 07:13:41;;;;;;;7.50;2.17;;;27.40;81.40;;;;;;5014455;28;20026;-57
2023/07/14 07:16:07;;;;;;;7.10;2.17;;;27.90;81.10;;;;;;5014341;28;20029;-56
2023/07/14 07:18:33;;;;;;;10.18;2.10;;;27.80;80.60;;;;;;5013992;28;20030;-56
2023/07/14 07:20:59;;;;;;;6.78;2.97;;;27.80;80.30;;;;;;5014292;28;20026;-53
2023/07/14 07:23:25;;;;;;;10.93;1.90;;;28.40;79.80;;;;;;5014344;28;20026;-54
2023/07/14 07:25:53;;;;;;;7.22;2.47;;;29.20;78.10;;;;;;5014135;28;20026;-54
2023/07/14 07:28:19;;;;;;;11.32;2.10;;;30.00;74.90;;;;;;5013565;28;20080;-57
2023/07/14 07:30:46;;;;;;;6.65;1.83;;;30.20;74.20;;;;;;5014138;28;20117;-51
2023/07/14 07:33:12;;;;;;;7.40;2.00;;;30.30;72.20;;;;;;5014055;28;20079;-57
2023/07/14 07:35:38;;;;;;;3.92;1.90;;;30.50;72.90;;;;;;5013949;28;20520;-55
2023/07/14 07:38:04;;;;;;;8.48;1.80;;;30.70;70.40;;;;;;5011366;28;20054;-54
2023/07/14 07:40:30;;;;;;;2.42;1.63;;;30.50;71.10;;;;;;5013918;28;20461;-54
2023/07/14 07:42:55;;;;;;;6.47;1.88;;;30.80;71.60;;;;;;5014033;28;20033;-51
2023/07/14 07:45:21;;;;;;;7.43;1.60;;;31.40;70.00;;;;;;5013412;28;20075;-55
2023/07/14 07:47:47;;;;;;;5.30;2.40;;;31.60;69.10;;;;;;5013082;28;20401;-52
2023/07/14 07:50:12;;;;;;;2.90;1.63;;;31.50;68.70;;;;;;5013793;28;20029;-54
2023/07/14 07:52:38;;;;;;;5.35;1.23;;;31.10;68.90;;;;;;5012333;28;20490;-56
2023/07/14 07:55:04;;;;;;;5.80;1.73;;;31.10;69.80;;;;;;5013732;28;20022;-54
2023/07/14 07:57:31;;;;;;;5.43;1.70;;;31.60;70.30;;;;;;5013016;28;20026;-56
2023/07/14 07:59:56;;;;;;;9.00;2.05;;;31.80;68.50;;;;;;5014038;28;20452;-54
2023/07/14 08:02:22;;;;;;;5.95;1.60;;;32.00;68.50;;;;;;5013786;28;20041;-54
2023/07/14 08:04:49;;;;;;;3.17;1.45;;;31.70;67.40;;;;;;5013692;28;20038;-54
2023/07/14 08:07:15;;;;;;;5.00;1.60;;;31.40;68.10;;;;;;5012767;28;20131;-56
2023/07/14 08:09:41;;;;;;;4.82;1.52;;;31.40;67.80;;;;;;5013530;28;20498;-54
2023/07/14 08:12:07;;;;;;;3.58;1.65;;;31.30;68.60;;;;;;5013505;28;20081;-55
2023/07/14 08:14:49;;;;;;;5.22;1.75;;;31.70;67.50;;;;;;5013529;28;20022;-54
2023/07/14 08:17:14;;;;;;;4.55;1.20;;;31.60;67.10;;;;;;5013054;28;20022;-57
2023/07/14 08:19:40;;;;;;;2.08;1.30;;;31.80;66.30;;;;;;5028791;28;20121;-54
2023/07/14 08:22:05;;;;;;;8.13;1.40;;;32.50;64.90;;;;;;5014051;28;20042;-55
2023/07/14 08:24:31;;;;;;;4.80;1.40;;;33.00;64.70;;;;;;5013311;28;20037;-52
2023/07/14 08:26:56;;;;;;;3.17;1.63;;;32.60;64.00;;;;;;5012521;28;20720;-55
2023/07/14 08:29:22;;;;;;;6.35;1.90;;;32.30;64.60;;;;;;5028195;28;20034;-57
2023/07/14 08:31:48;;;;;;;5.38;1.42;;;31.80;66.30;;;;;;5012879;28;20092;-55
2023/07/14 08:34:14;;;;;;;9.20;1.90;;;31.60;65.80;;;;;;5012795;28;20028;-56
2023/07/14 08:36:39;;;;;;;3.22;1.88;;;31.10;66.80;;;;;;5012039;28;20045;-55
2023/07/14 08:39:06;;;;;;;7.32;1.52;;;30.50;67.70;;;;;;5011754;28;20057;-53
2023/07/14 08:41:38;;;;;;;8.13;2.80;;;30.50;69.50;;;;;;5011324;28;20045;-55
2023/07/14 08:44:24;;;;;;;5.90;2.13;;;30.50;68.80;;;;;;5012768;28;20037;-56
2023/07/14 08:47:02;;;;;;;6.80;2.78;;;30.70;69.10;;;;;;5012160;28;20026;-55
2023/07/14 08:49:46;;;;;;;6.50;2.88;;;30.40;69.50;;;;;;5012561;28;20108;-54
2023/07/14 08:52:21;;;;;;;6.50;2.75;;;30.20;69.70;;;;;;5012672;28;20058;-55
2023/07/14 08:54:51;;;;;;;8.43;2.65;;;30.20;68.60;;;;;;5012629;28;20026;-54
2023/07/14 08:57:21;;;;;;;5.38;2.38;;;30.10;68.30;;;;;;5012125;28;20049;-55
2023/07/14 08:59:48;;;;;;;5.65;2.33;;;30.20;68.10;;;;;;5012769;28;20038;-55
2023/07/14 09:02:45;;;;;;;7.50;2.50;;;30.20;68.60;;;;;;5012738;28;20449;-54
2023/07/14 09:05:27;;;;;;;3.92;2.33;;;30.10;67.90;;;;;;5012828;28;20112;-51
2023/07/14 09:07:54;;;;;;;3.35;1.80;;;29.90;68.50;;;;;;5011964;28;20021;-52
2023/07/14 09:10:48;;;;;;;6.88;1.67;;;29.90;69.00;;;;;;5012427;28;20026;-52
2023/07/14 09:13:33;;;;;;;2.42;1.40;;;29.90;68.80;;;;;;5012378;28;20440;-56
2023/07/14 09:16:00;;;;;;;5.78;1.90;;;29.90;68.00;;;;;;5012459;28;20048;-54
2023/07/14 09:18:44;;;;;;;4.93;1.65;;;30.10;66.70;;;;;;5011548;28;20493;-56
2023/07/14 09:21:15;;;;;;;7.20;2.10;;;29.90;67.60;;;;;;5012204;28;20053;-56
2023/07/14 09:23:53;;;;;;;5.93;1.80;;;29.90;68.60;;;;;;5012075;28;20481;-52
2023/07/14 09:26:35;;;;;;;4.10;1.40;;;29.90;68.80;;;;;;5010372;28;20033;-55
2023/07/14 09:29:19;;;;;;;6.13;2.20;;;29.60;68.60;;;;;;5012048;28;20072;-55
2023/07/14 09:32:00;;;;;;;6.00;1.90;;;29.40;69.60;;;;;;5012046;28;20083;-55
2023/07/14 09:34:33;;;;;;;9.48;2.60;;;29.30;69.30;;;;;;5011834;28;20045;-55
2023/07/14 09:36:59;;;;;;;6.90;1.52;;;29.00;69.70;;;;;;5011546;28;20029;-55
2023/07/14 09:39:39;;;;;;;9.15;1.50;;;28.90;70.20;;;;;;5010902;28;20120;-55
2023/07/14 09:42:11;;;;;;;7.13;1.77;;;29.10;70.10;;;;;;5011854;28;20084;-56
2023/07/14 09:44:36;;;;;;;6.60;1.70;;;29.30;69.60;;;;;;5011880;28;20054;-56
2023/07/14 09:47:04;;;;;;;3.85;2.17;;;29.40;70.30;;;;;;5011157;28;20061;-55
2023/07/14 09:49:40;;;;;;;7.07;3.00;;;29.70;70.40;;;;;;5011769;28;20435;-56
2023/07/14 09:52:11;;;;;;;4.32;1.83;;;29.50;68.00;;;;;;5011788;28;20084;-53
2023/07/14 09:54:53;;;;;;;8.35;1.25;;;29.50;67.60;;;;;;5011747;28;20036;-54
2023/07/14 09:57:24;;;;;;;2.65;1.38;;;29.10;68.50;;;;;;5011525;28;20025;-54
2023/07/14 09:59:56;;;;;;;3.50;1.67;;;28.60;69.50;;;;;;5012236;28;20490;-53
2023/07/14 10:02:31;;;;;;;4.28;1.38;;;28.10;70.50;;;;;;5013884;28;20058;-55
2023/07/14 10:05:15;;;;;;;;;;;27.90;70.10;;;;;;5016082;28;20036;-56
2023/07/14 10:07:41;;;;;;;4.90;1.48;;;27.80;71.80;;;;;;5015216;28;20391;-51
2023/07/14 10:10:09;;;;;;;3.25;1.10;;;27.60;71.10;;;;;;5015579;28;20026;-54
2023/07/14 10:12:42;;;;;;;5.35;1.20;;;27.50;71.30;;;;;;5015693;28;20085;-52
2023/07/14 10:15:27;;;;;;;3.80;1.60;;;27.50;71.50;;;;;;5015596;28;20022;-51
2023/07/14 10:17:54;;;;;;;6.37;1.80;;;27.50;71.10;;;;;;5014871;28;20121;-51
2023/07/14 10:20:22;;;;;;;3.47;1.50;;;27.50;71.40;;;;;;5015414;28;20018;-55
2023/07/14 10:22:53;;;;;;;8.50;1.55;;;27.50;70.80;;;;;;5015527;28;20026;-56
2023/07/14 10:25:20;;;;;;;4.00;1.40;;;27.60;70.80;;;;;;5015253;28;20029;-52
2023/07/14 10:28:11;;;;;;;3.28;1.85;;;27.60;70.80;;;;;;5014404;28;20037;-53
2023/07/14 10:31:02;;;;;;;4.00;1.45;;;27.80;70.70;;;;;;5015157;28;20030;-53
2023/07/14 10:34:05;;;;;;;2.72;1.27;;;27.90;70.90;;;;;;5015190;28;20029;-55
2023/07/14 10:36:38;;;;;;;3.10;1.33;;;28.20;70.70;;;;;;5029701;28;20030;-54
2023/07/14 10:39:11;;;;;;;5.43;1.75;;;28.50;70.40;;;;;;5014189;28;20114;-53
2023/07/14 10:41:39;;;;;;;6.13;1.70;;;28.60;69.30;;;;;;5015167;28;20402;-51
2023/07/14 10:44:15;;;;;;;4.90;1.20;;;28.50;69.80;;;;;;5014710;28;20391;-56
2023/07/14 10:46:50;;;;;;;5.80;1.40;;;28.30;69.90;;;;;;5014355;28;20018;-52
2023/07/14 10:49:15;;;;;;;3.30;1.20;;;28.20;69.40;;;;;;5015010;28;20021;-55
2023/07/14 10:52:05;;;;;;;6.47;2.20;;;28.10;69.40;;;;;;5014624;28;20385;-57
2023/07/14 10:54:52;;;;;;;2.15;1.40;;;28.00;69.90;;;;;;5014638;28;20033;-54
2023/07/14 10:57:43;;;;;;;8.48;1.52;;;27.90;71.20;;;;;;5014300;28;20026;-56
2023/07/14 11:00:25;;;;;;;3.70;1.30;;;27.70;71.70;;;;;;5013315;28;20042;-54
2023/07/14 11:03:11;;;;;;;6.97;1.58;;;27.60;71.90;;;;;;5013241;28;20041;-57
2023/07/14 11:05:38;;;;;;;4.72;1.58;;;27.60;71.90;;;;;;5014671;28;20026;-53
2023/07/14 11:08:04;;;;;;;3.85;1.48;;;27.30;70.80;;;;;;5014028;28;20029;-55
2023/07/14 11:10:44;;;;;;;6.53;1.42;;;27.20;71.90;;;;;;5014391;28;20037;-55
2023/07/14 11:13:16;;;;;;;3.30;1.73;;;27.00;72.00;;;;;;5013113;28;20056;-52
2023/07/14 11:16:05;;;;;;;12.85;1.55;;;26.80;72.50;;;;;;5014297;28;20473;-55
2023/07/14 11:18:58;;;;;;;8.73;1.70;;;26.70;73.10;;;;;;5013802;28;20030;-54
2023/07/14 11:21:39;;;;;;;5.60;2.08;;;26.70;74.10;;;;;;5014130;28;20117;-52
2023/07/14 11:24:17;;;;;;;5.07;1.48;;;26.70;74.90;;;;;;5014728;28;20478;-56
2023/07/14 11:27:27;;;;;;;3.80;2.00;;;26.50;74.70;;;;;;5013679;28;20029;-56
2023/07/14 11:30:06;;;;;;;4.65;2.00;;;26.40;73.80;;;;;;5013963;28;20374;-55
2023/07/14 11:32:50;;;;;;;4.38;1.80;;;26.40;73.60;;;;;;5013919;28;20022;-57
2023/07/14 11:35:32;;;;;;;4.88;1.42;;;26.30;73.00;;;;;;5012972;28;20029;-54
2023/07/14 11:37:57;;;;;;;2.42;1.25;;;26.30;72.70;;;;;;5012318;28;20026;-48
2023/07/14 11:40:25;;;;;;;4.05;1.33;;;26.30;73.70;;;;;;5029095;28;20367;-52
2023/07/14 11:42:55;;;;;;;7.20;1.63;;;26.30;73.60;;;;;;5014060;28;20112;-57
2023/07/14 11:45:24;;;;;;;3.97;1.63;;;26.30;73.20;;;;;;5013855;28;20486;-53
2023/07/14 11:47:50;;;;;;;5.13;1.50;;;26.30;72.90;;;;;;5013252;28;20030;-55
2023/07/14 11:50:16;;;;;;;1.13;1.00;;;26.40;72.90;;;;;;5014057;28;20026;-54
2023/07/14 11:53:05;;;;;;;4.50;1.38;;;26.50;73.20;;;;;;5013633;28;20037;-54
2023/07/14 11:55:33;;;;;;;3.05;1.50;;;26.70;73.10;;;;;;5013722;28;20091;-55
2023/07/14 11:58:26;;;;;;;2.55;1.48;;;27.00;72.30;;;;;;5013077;28;20025;-52
2023/07/14 12:00:59;;;;;;;3.22;1.30;;;27.10;71.90;;;;;;5013821;28;20022;-55
2023/07/14 12:03:32;;;;;;;2.70;1.38;;;27.30;72.40;;;;;;5013464;28;20022;-53
2023/07/14 12:06:23;;;;;;;8.85;1.52;;;27.40;71.30;;;;;;5013423;28;20033;-51
2023/07/14 12:09:10;;;;;;;5.20;1.60;;;27.50;71.40;;;;;;5028631;28;20026;-56
2023/07/14 12:11:39;;;;;;;5.00;1.58;;;27.60;71.50;;;;;;5028427;28;20116;-52
2023/07/14 12:14:24;;;;;;;2.55;1.23;;;27.70;71.80;;;;;;5013251;28;20160;-55
2023/07/14 12:16:49;;;;;;;;;;;27.90;71.50;;;;;;5013375;28;20022;-54
2023/07/14 12:19:26;;;;;;;10.18;1.98;;;27.80;71.10;;;;;;5013363;28;20343;-52
2023/07/14 12:22:09;;;;;;;5.15;1.60;;;27.70;71.00;;;;;;5013518;28;20042;-55
2023/07/14 12:24:42;;;;;;;7.03;1.55;;;27.50;72.20;;;;;;5012465;28;20026;-54
2023/07/14 12:27:21;;;;;;;2.83;1.27;;;27.30;71.50;;;;;;5012198;28;20057;-50
2023/07/14 12:29:59;;;;;;;3.47;1.88;;;27.10;70.90;;;;;;5013001;28;20026;-54
2023/07/14 12:32:25;;;;;;;5.97;1.77;;;27.00;71.80;;;;;;5012494;28;20026;-54
2023/07/14 12:34:50;;;;;;;2.75;1.45;;;27.10;71.70;;;;;;5012706;28;20024;-51
2023/07/14 12:37:19;;;;;;;3.30;1.50;;;27.20;71.50;;;;;;5012020;28;20176;-50
2023/07/14 12:39:51;;;;;;;3.90;1.92;;;27.30;72.20;;;;;;5011709;28;20025;-51
2023/07/14 12:42:17;;;;;;;4.85;1.95;;;27.40;71.40;;;;;;5012566;28;20040;-52
2023/07/14 12:44:42;;;;;;;6.63;1.55;;;27.40;71.30;;;;;;5012480;28;20026;-55
2023/07/14 12:47:14;;;;;;;2.13;1.17;;;27.40;70.50;;;;;;5011869;28;20038;-53
2023/07/14 12:49:42;;;;;;;3.72;1.30;;;27.20;69.70;;;;;;5012604;28;20034;-51
2023/07/14 12:52:22;;;;;;;5.18;1.35;;;27.00;70.30;;;;;;5012371;28;20026;-53
2023/07/14 12:54:48;;;;;;;4.55;1.40;;;26.90;70.70;;;;;;5012360;28;20034;-51
2023/07/14 12:57:17;;;;;;;7.18;1.48;;;26.90;69.70;;;;;;5011727;28;20389;-55
2023/07/14 12:59:50;;;;;;;3.95;1.40;;;27.00;70.40;;;;;;5011167;28;20054;-54
2023/07/14 13:02:15;;;;;;;4.70;1.20;;;27.10;70.70;;;;;;5012179;28;20110;-51